sensor_id;sensor_type;location;lat;lon;timestamp;P1;durP1;ratioP1;P2;durP2;ratioP2
82805;SDS011;72558;51.000;-3.112;2024-01-06T00:00:33;13.5;;;2.3;;
82805;SDS011;72558;51.000;-3.112;2024-01-06T00:03:33;12.1;;;2.3;;
82805;SDS011;72558;51.000;-3.112;2024-01-06T00:06:34;12.7;;;1.9;;
82805;SDS011;72558;51.000;-3.112;2024-01-06T00:09:34;10.7;;;2.0;;
82805;SDS011;72558;51.000;-3.112;2024-01-06T00:12:33;14.0;;;2.0;;
82805;SDS011;72558;51.000;-3.112;2024-01-06T00:15:34;10.5;;;2.0;;
82805;SDS011;72558;51.000;-3.112;2024-01-06T00:18:34;9.6;;;1.4;;
82805;SDS011;72558;51.000;-3.112;2024-01-06T00:21:36;11.9;;;1.8;;
82805;SDS011;72558;51.000;-3.112;2024-01-06T00:24:33;12.0;;;1.8;;
82805;SDS011;72558;51.000;-3.112;2024-01-06T00:27:34;11.4;;;2.1;;
82805;SDS011;72558;51.000;-3.112;2024-01-06T00:30:34;11.7;;;1.9;;
82805;SDS011;72558;51.000;-3.112;2024-01-06T00:33:33;9.1;;;2.0;;
82805;SDS011;72558;51.000;-3.112;2024-01-06T00:36:34;11.3;;;1.8;;
82805;SDS011;72558;51.000;-3.112;2024-01-06T00:39:33;11.6;;;2.3;;
82805;SDS011;72558;51.000;-3.112;2024-01-06T00:42:33;11.6;;;2.4;;
82805;SDS011;72558;51.000;-3.112;2024-01-06T00:45:34;11.3;;;1.8;;
82805;SDS011;72558;51.000;-3.112;2024-01-06T00:48:33;12.5;;;1.6;;
82805;SDS011;72558;51.000;-3.112;2024-01-06T00:51:34;13.4;;;1.6;;
82805;SDS011;72558;51.000;-3.112;2024-01-06T00:54:34;13.3;;;1.8;;
82805;SDS011;72558;51.000;-3.112;2024-01-06T00:57:34;14.3;;;2.0;;
82805;SDS011;72558;51.000;-3.112;2024-01-06T01:00:33;10.8;;;1.4;;
82805;SDS011;72558;51.000;-3.112;2024-01-06T01:03:34;13.3;;;2.3;;
82805;SDS011;72558;51.000;-3.112;2024-01-06T01:06:33;11.5;;;1.6;;
82805;SDS011;72558;51.000;-3.112;2024-01-06T01:09:34;13.7;;;1.8;;
82805;SDS011;72558;51.000;-3.112;2024-01-06T01:12:34;11.2;;;1.5;;
82805;SDS011;72558;51.000;-3.112;2024-01-06T01:15:34;12.1;;;1.6;;
82805;SDS011;72558;51.000;-3.112;2024-01-06T01:18:34;13.6;;;2.0;;
82805;SDS011;72558;51.000;-3.112;2024-01-06T01:21:34;15.7;;;1.8;;
82805;SDS011;72558;51.000;-3.112;2024-01-06T01:24:34;11.7;;;1.9;;
82805;SDS011;72558;51.000;-3.112;2024-01-06T01:27:34;13.1;;;1.7;;
82805;SDS011;72558;51.000;-3.112;2024-01-06T01:30:33;12.4;;;1.8;;
82805;SDS011;72558;51.000;-3.112;2024-01-06T01:33:34;17.4;;;2.3;;
82805;SDS011;72558;51.000;-3.112;2024-01-06T01:36:33;12.7;;;2.2;;
82805;SDS011;72558;51.000;-3.112;2024-01-06T01:39:34;11.9;;;1.7;;
82805;SDS011;72558;51.000;-3.112;2024-01-06T01:42:34;12.6;;;1.9;;
82805;SDS011;72558;51.000;-3.112;2024-01-06T01:45:33;12.0;;;1.8;;
82805;SDS011;72558;51.000;-3.112;2024-01-06T01:48:34;14.1;;;1.9;;
82805;SDS011;72558;51.000;-3.112;2024-01-06T01:51:33;13.7;;;1.7;;
82805;SDS011;72558;51.000;-3.112;2024-01-06T01:54:34;14.6;;;1.9;;
82805;SDS011;72558;51.000;-3.112;2024-01-06T01:57:34;10.4;;;1.7;;
82805;SDS011;72558;51.000;-3.112;2024-01-06T02:00:34;13.0;;;1.7;;
82805;SDS011;72558;51.000;-3.112;2024-01-06T02:03:33;13.0;;;1.9;;
82805;SDS011;72558;51.000;-3.112;2024-01-06T02:06:33;14.8;;;2.0;;
82805;SDS011;72558;51.000;-3.112;2024-01-06T02:09:34;10.5;;;1.6;;
82805;SDS011;72558;51.000;-3.112;2024-01-06T02:12:34;16.7;;;2.2;;
82805;SDS011;72558;51.000;-3.112;2024-01-06T02:15:34;11.9;;;1.6;;
82805;SDS011;72558;51.000;-3.112;2024-01-06T02:18:34;11.2;;;1.6;;
82805;SDS011;72558;51.000;-3.112;2024-01-06T02:21:33;9.3;;;1.3;;
82805;SDS011;72558;51.000;-3.112;2024-01-06T02:24:33;11.9;;;1.3;;
82805;SDS011;72558;51.000;-3.112;2024-01-06T02:27:34;10.1;;;1.3;;
82805;SDS011;72558;51.000;-3.112;2024-01-06T02:30:33;9.7;;;1.3;;
82805;SDS011;72558;51.000;-3.112;2024-01-06T02:33:33;8.9;;;1.2;;
82805;SDS011;72558;51.000;-3.112;2024-01-06T02:36:34;9.2;;;1.3;;
82805;SDS011;72558;51.000;-3.112;2024-01-06T02:39:34;12.3;;;1.3;;
82805;SDS011;72558;51.000;-3.112;2024-01-06T02:42:34;14.5;;;1.6;;
82805;SDS011;72558;51.000;-3.112;2024-01-06T02:45:34;10.5;;;1.6;;
82805;SDS011;72558;51.000;-3.112;2024-01-06T02:48:34;11.7;;;1.7;;
82805;SDS011;72558;51.000;-3.112;2024-01-06T02:51:34;15.7;;;2.0;;
82805;SDS011;72558;51.000;-3.112;2024-01-06T02:54:33;10.5;;;1.7;;
82805;SDS011;72558;51.000;-3.112;2024-01-06T02:57:34;14.0;;;1.5;;
82805;SDS011;72558;51.000;-3.112;2024-01-06T03:00:34;13.3;;;2.1;;
82805;SDS011;72558;51.000;-3.112;2024-01-06T03:03:34;14.9;;;2.1;;
82805;SDS011;72558;51.000;-3.112;2024-01-06T03:06:34;13.4;;;1.5;;
82805;SDS011;72558;51.000;-3.112;2024-01-06T03:09:34;12.5;;;1.8;;
82805;SDS011;72558;51.000;-3.112;2024-01-06T03:12:34;14.6;;;2.1;;
82805;SDS011;72558;51.000;-3.112;2024-01-06T03:15:33;13.1;;;2.2;;
82805;SDS011;72558;51.000;-3.112;2024-01-06T03:18:34;16.8;;;2.3;;
82805;SDS011;72558;51.000;-3.112;2024-01-06T03:21:34;9.9;;;1.6;;
82805;SDS011;72558;51.000;-3.112;2024-01-06T03:24:34;12.7;;;1.6;;
82805;SDS011;72558;51.000;-3.112;2024-01-06T03:27:34;10.3;;;1.2;;
82805;SDS011;72558;51.000;-3.112;2024-01-06T03:30:33;10.5;;;1.5;;
82805;SDS011;72558;51.000;-3.112;2024-01-06T03:33:34;11.4;;;1.5;;
82805;SDS011;72558;51.000;-3.112;2024-01-06T03:36:34;12.7;;;2.1;;
82805;SDS011;72558;51.000;-3.112;2024-01-06T03:39:34;14.8;;;1.4;;
82805;SDS011;72558;51.000;-3.112;2024-01-06T03:42:34;12.3;;;1.7;;
82805;SDS011;72558;51.000;-3.112;2024-01-06T03:45:33;10.2;;;1.6;;
82805;SDS011;72558;51.000;-3.112;2024-01-06T03:48:34;12.5;;;1.6;;
82805;SDS011;72558;51.000;-3.112;2024-01-06T03:51:34;11.1;;;1.3;;
82805;SDS011;72558;51.000;-3.112;2024-01-06T03:54:34;9.9;;;1.4;;
82805;SDS011;72558;51.000;-3.112;2024-01-06T03:57:34;8.4;;;1.3;;
82805;SDS011;72558;51.000;-3.112;2024-01-06T04:00:34;9.8;;;1.2;;
82805;SDS011;72558;51.000;-3.112;2024-01-06T04:03:34;12.2;;;1.9;;
82805;SDS011;72558;51.000;-3.112;2024-01-06T04:06:33;11.3;;;1.4;;
82805;SDS011;72558;51.000;-3.112;2024-01-06T04:09:34;12.4;;;1.5;;
82805;SDS011;72558;51.000;-3.112;2024-01-06T04:12:34;13.5;;;1.6;;
82805;SDS011;72558;51.000;-3.112;2024-01-06T04:15:33;10.1;;;1.5;;
82805;SDS011;72558;51.000;-3.112;2024-01-06T04:18:34;11.6;;;1.6;;
82805;SDS011;72558;51.000;-3.112;2024-01-06T04:21:33;11.0;;;1.7;;
82805;SDS011;72558;51.000;-3.112;2024-01-06T04:24:34;8.8;;;2.1;;
82805;SDS011;72558;51.000;-3.112;2024-01-06T04:27:34;10.5;;;1.7;;
82805;SDS011;72558;51.000;-3.112;2024-01-06T04:30:34;10.7;;;1.6;;
82805;SDS011;72558;51.000;-3.112;2024-01-06T04:33:34;11.9;;;2.1;;
82805;SDS011;72558;51.000;-3.112;2024-01-06T04:36:34;11.4;;;1.9;;
82805;SDS011;72558;51.000;-3.112;2024-01-06T04:39:34;12.0;;;2.4;;
82805;SDS011;72558;51.000;-3.112;2024-01-06T04:42:34;11.5;;;2.0;;
82805;SDS011;72558;51.000;-3.112;2024-01-06T04:45:34;11.9;;;1.8;;
82805;SDS011;72558;51.000;-3.112;2024-01-06T04:48:34;11.5;;;2.0;;
82805;SDS011;72558;51.000;-3.112;2024-01-06T04:51:34;11.2;;;1.9;;
82805;SDS011;72558;51.000;-3.112;2024-01-06T04:54:34;11.4;;;1.7;;
82805;SDS011;72558;51.000;-3.112;2024-01-06T04:57:33;11.3;;;1.9;;
82805;SDS011;72558;51.000;-3.112;2024-01-06T05:00:34;11.1;;;1.8;;
82805;SDS011;72558;51.000;-3.112;2024-01-06T05:03:33;10.2;;;1.8;;
82805;SDS011;72558;51.000;-3.112;2024-01-06T05:06:34;15.0;;;1.9;;
82805;SDS011;72558;51.000;-3.112;2024-01-06T05:09:34;13.1;;;2.2;;
82805;SDS011;72558;51.000;-3.112;2024-01-06T05:12:34;11.4;;;2.0;;
82805;SDS011;72558;51.000;-3.112;2024-01-06T05:15:34;9.6;;;1.7;;
82805;SDS011;72558;51.000;-3.112;2024-01-06T05:18:34;11.7;;;1.8;;
82805;SDS011;72558;51.000;-3.112;2024-01-06T05:21:34;10.4;;;1.9;;
82805;SDS011;72558;51.000;-3.112;2024-01-06T05:24:33;12.1;;;1.8;;
82805;SDS011;72558;51.000;-3.112;2024-01-06T05:27:34;11.9;;;1.7;;
82805;SDS011;72558;51.000;-3.112;2024-01-06T05:30:33;11.1;;;1.7;;
82805;SDS011;72558;51.000;-3.112;2024-01-06T05:33:34;9.7;;;1.5;;
82805;SDS011;72558;51.000;-3.112;2024-01-06T05:36:34;12.1;;;1.9;;
82805;SDS011;72558;51.000;-3.112;2024-01-06T05:39:33;9.5;;;1.5;;
82805;SDS011;72558;51.000;-3.112;2024-01-06T05:42:34;8.8;;;1.5;;
82805;SDS011;72558;51.000;-3.112;2024-01-06T05:45:34;10.4;;;1.5;;
82805;SDS011;72558;51.000;-3.112;2024-01-06T05:48:34;10.7;;;1.7;;
82805;SDS011;72558;51.000;-3.112;2024-01-06T05:51:34;11.3;;;1.5;;
82805;SDS011;72558;51.000;-3.112;2024-01-06T05:54:33;11.2;;;1.6;;
82805;SDS011;72558;51.000;-3.112;2024-01-06T05:57:34;14.8;;;2.1;;
82805;SDS011;72558;51.000;-3.112;2024-01-06T06:00:34;11.9;;;1.9;;
82805;SDS011;72558;51.000;-3.112;2024-01-06T06:03:34;12.8;;;2.0;;
82805;SDS011;72558;51.000;-3.112;2024-01-06T06:06:33;10.4;;;1.9;;
82805;SDS011;72558;51.000;-3.112;2024-01-06T06:09:34;10.3;;;1.9;;
82805;SDS011;72558;51.000;-3.112;2024-01-06T06:12:34;8.3;;;1.6;;
82805;SDS011;72558;51.000;-3.112;2024-01-06T06:15:34;10.1;;;1.6;;
82805;SDS011;72558;51.000;-3.112;2024-01-06T06:18:34;14.0;;;1.6;;
82805;SDS011;72558;51.000;-3.112;2024-01-06T06:21:34;12.5;;;1.8;;
82805;SDS011;72558;51.000;-3.112;2024-01-06T06:24:34;7.1;;;1.5;;
82805;SDS011;72558;51.000;-3.112;2024-01-06T06:27:33;13.5;;;2.0;;
82805;SDS011;72558;51.000;-3.112;2024-01-06T06:30:34;16.6;;;1.8;;
82805;SDS011;72558;51.000;-3.112;2024-01-06T06:33:33;11.6;;;2.7;;
82805;SDS011;72558;51.000;-3.112;2024-01-06T06:36:34;12.5;;;1.5;;
82805;SDS011;72558;51.000;-3.112;2024-01-06T06:39:33;14.0;;;2.3;;
82805;SDS011;72558;51.000;-3.112;2024-01-06T06:42:34;9.5;;;1.7;;
82805;SDS011;72558;51.000;-3.112;2024-01-06T06:45:34;9.8;;;1.9;;
82805;SDS011;72558;51.000;-3.112;2024-01-06T06:48:34;13.5;;;1.7;;
82805;SDS011;72558;51.000;-3.112;2024-01-06T06:51:34;11.6;;;2.0;;
82805;SDS011;72558;51.000;-3.112;2024-01-06T06:54:35;11.3;;;1.6;;
82805;SDS011;72558;51.000;-3.112;2024-01-06T06:57:33;9.7;;;1.5;;
82805;SDS011;72558;51.000;-3.112;2024-01-06T07:00:34;7.6;;;1.5;;
82805;SDS011;72558;51.000;-3.112;2024-01-06T07:03:34;11.5;;;2.1;;
82805;SDS011;72558;51.000;-3.112;2024-01-06T07:06:33;14.3;;;2.1;;
82805;SDS011;72558;51.000;-3.112;2024-01-06T07:09:34;8.9;;;2.0;;
82805;SDS011;72558;51.000;-3.112;2024-01-06T07:12:33;11.4;;;1.8;;
82805;SDS011;72558;51.000;-3.112;2024-01-06T07:15:34;10.7;;;1.8;;
82805;SDS011;72558;51.000;-3.112;2024-01-06T07:18:34;8.5;;;1.4;;
82805;SDS011;72558;51.000;-3.112;2024-01-06T07:21:33;14.6;;;2.4;;
82805;SDS011;72558;51.000;-3.112;2024-01-06T07:24:34;10.2;;;2.2;;
82805;SDS011;72558;51.000;-3.112;2024-01-06T07:27:33;10.2;;;2.3;;
82805;SDS011;72558;51.000;-3.112;2024-01-06T07:30:34;10.1;;;2.0;;
82805;SDS011;72558;51.000;-3.112;2024-01-06T07:33:33;10.4;;;2.1;;
82805;SDS011;72558;51.000;-3.112;2024-01-06T07:36:34;11.6;;;2.0;;
82805;SDS011;72558;51.000;-3.112;2024-01-06T07:39:34;9.8;;;2.2;;
82805;SDS011;72558;51.000;-3.112;2024-01-06T07:42:34;11.5;;;2.7;;
82805;SDS011;72558;51.000;-3.112;2024-01-06T07:45:34;13.4;;;3.2;;
82805;SDS011;72558;51.000;-3.112;2024-01-06T07:48:34;15.6;;;4.0;;
82805;SDS011;72558;51.000;-3.112;2024-01-06T07:51:34;15.1;;;3.8;;
82805;SDS011;72558;51.000;-3.112;2024-01-06T07:54:34;12.1;;;3.4;;
82805;SDS011;72558;51.000;-3.112;2024-01-06T07:57:34;13.4;;;3.6;;
82805;SDS011;72558;51.000;-3.112;2024-01-06T08:00:34;14.3;;;3.7;;
82805;SDS011;72558;51.000;-3.112;2024-01-06T08:03:34;16.1;;;3.4;;
82805;SDS011;72558;51.000;-3.112;2024-01-06T08:06:34;13.1;;;3.1;;
82805;SDS011;72558;51.000;-3.112;2024-01-06T08:09:33;13.0;;;3.4;;
82805;SDS011;72558;51.000;-3.112;2024-01-06T08:12:34;17.2;;;3.6;;
82805;SDS011;72558;51.000;-3.112;2024-01-06T08:15:34;10.3;;;3.3;;
82805;SDS011;72558;51.000;-3.112;2024-01-06T08:18:34;15.5;;;3.4;;
82805;SDS011;72558;51.000;-3.112;2024-01-06T08:21:34;12.7;;;3.2;;
82805;SDS011;72558;51.000;-3.112;2024-01-06T08:24:34;14.2;;;3.5;;
82805;SDS011;72558;51.000;-3.112;2024-01-06T08:27:34;16.4;;;3.4;;
82805;SDS011;72558;51.000;-3.112;2024-01-06T08:30:34;11.4;;;3.3;;
82805;SDS011;72558;51.000;-3.112;2024-01-06T08:33:33;11.9;;;3.1;;
82805;SDS011;72558;51.000;-3.112;2024-01-06T08:36:34;11.7;;;2.9;;
82805;SDS011;72558;51.000;-3.112;2024-01-06T08:39:34;12.3;;;2.5;;
82805;SDS011;72558;51.000;-3.112;2024-01-06T08:42:35;10.3;;;2.7;;
82805;SDS011;72558;51.000;-3.112;2024-01-06T08:45:34;12.7;;;3.0;;
82805;SDS011;72558;51.000;-3.112;2024-01-06T08:48:34;10.8;;;3.0;;
82805;SDS011;72558;51.000;-3.112;2024-01-06T08:51:33;11.7;;;2.8;;
82805;SDS011;72558;51.000;-3.112;2024-01-06T08:54:34;14.4;;;2.9;;
82805;SDS011;72558;51.000;-3.112;2024-01-06T08:57:34;14.0;;;2.9;;
82805;SDS011;72558;51.000;-3.112;2024-01-06T09:00:34;14.0;;;3.0;;
82805;SDS011;72558;51.000;-3.112;2024-01-06T09:03:34;10.7;;;2.5;;
82805;SDS011;72558;51.000;-3.112;2024-01-06T09:06:33;12.0;;;2.9;;
82805;SDS011;72558;51.000;-3.112;2024-01-06T09:09:34;13.6;;;3.1;;
82805;SDS011;72558;51.000;-3.112;2024-01-06T09:12:33;9.8;;;2.6;;
82805;SDS011;72558;51.000;-3.112;2024-01-06T09:15:34;11.0;;;2.1;;
82805;SDS011;72558;51.000;-3.112;2024-01-06T09:18:34;12.3;;;2.5;;
82805;SDS011;72558;51.000;-3.112;2024-01-06T09:21:33;11.1;;;2.3;;
82805;SDS011;72558;51.000;-3.112;2024-01-06T09:24:34;9.4;;;2.3;;
82805;SDS011;72558;51.000;-3.112;2024-01-06T09:27:34;14.0;;;4.7;;
82805;SDS011;72558;51.000;-3.112;2024-01-06T09:30:34;10.0;;;3.2;;
82805;SDS011;72558;51.000;-3.112;2024-01-06T09:33:34;8.0;;;2.2;;
82805;SDS011;72558;51.000;-3.112;2024-01-06T09:36:34;11.2;;;1.9;;
82805;SDS011;72558;51.000;-3.112;2024-01-06T09:39:34;8.5;;;1.7;;
82805;SDS011;72558;51.000;-3.112;2024-01-06T09:42:34;9.6;;;1.4;;
82805;SDS011;72558;51.000;-3.112;2024-01-06T09:45:33;8.7;;;1.9;;
82805;SDS011;72558;51.000;-3.112;2024-01-06T09:48:34;10.6;;;1.4;;
82805;SDS011;72558;51.000;-3.112;2024-01-06T09:51:34;7.0;;;1.4;;
82805;SDS011;72558;51.000;-3.112;2024-01-06T09:54:34;7.5;;;1.6;;
82805;SDS011;72558;51.000;-3.112;2024-01-06T09:57:34;6.8;;;1.4;;
82805;SDS011;72558;51.000;-3.112;2024-01-06T10:00:34;11.0;;;1.5;;
82805;SDS011;72558;51.000;-3.112;2024-01-06T10:03:34;5.1;;;1.1;;
82805;SDS011;72558;51.000;-3.112;2024-01-06T10:06:35;7.4;;;1.2;;
82805;SDS011;72558;51.000;-3.112;2024-01-06T10:09:33;9.7;;;1.8;;
82805;SDS011;72558;51.000;-3.112;2024-01-06T10:12:34;7.3;;;1.3;;
82805;SDS011;72558;51.000;-3.112;2024-01-06T10:15:34;8.6;;;1.4;;
82805;SDS011;72558;51.000;-3.112;2024-01-06T10:18:34;7.4;;;1.3;;
82805;SDS011;72558;51.000;-3.112;2024-01-06T10:21:34;7.0;;;1.5;;
82805;SDS011;72558;51.000;-3.112;2024-01-06T10:24:34;5.7;;;1.4;;
82805;SDS011;72558;51.000;-3.112;2024-01-06T10:27:33;8.6;;;1.6;;
82805;SDS011;72558;51.000;-3.112;2024-01-06T10:30:34;8.3;;;1.9;;
82805;SDS011;72558;51.000;-3.112;2024-01-06T10:33:34;5.8;;;1.7;;
82805;SDS011;72558;51.000;-3.112;2024-01-06T10:36:34;9.7;;;2.3;;
82805;SDS011;72558;51.000;-3.112;2024-01-06T10:39:34;5.9;;;1.7;;
82805;SDS011;72558;51.000;-3.112;2024-01-06T10:42:33;6.3;;;1.6;;
82805;SDS011;72558;51.000;-3.112;2024-01-06T10:45:33;6.5;;;1.5;;
82805;SDS011;72558;51.000;-3.112;2024-01-06T10:48:34;6.9;;;1.3;;
82805;SDS011;72558;51.000;-3.112;2024-01-06T10:51:34;7.1;;;1.5;;
82805;SDS011;72558;51.000;-3.112;2024-01-06T10:54:34;7.4;;;1.5;;
82805;SDS011;72558;51.000;-3.112;2024-01-06T10:57:33;6.0;;;1.1;;
82805;SDS011;72558;51.000;-3.112;2024-01-06T11:00:34;7.2;;;1.7;;
82805;SDS011;72558;51.000;-3.112;2024-01-06T11:03:34;7.7;;;1.2;;
82805;SDS011;72558;51.000;-3.112;2024-01-06T11:06:34;5.0;;;1.1;;
82805;SDS011;72558;51.000;-3.112;2024-01-06T11:09:34;6.7;;;1.1;;
82805;SDS011;72558;51.000;-3.112;2024-01-06T11:12:34;7.1;;;1.6;;
82805;SDS011;72558;51.000;-3.112;2024-01-06T11:15:33;4.9;;;0.9;;
82805;SDS011;72558;51.000;-3.112;2024-01-06T11:18:33;5.5;;;1.1;;
82805;SDS011;72558;51.000;-3.112;2024-01-06T11:21:34;4.9;;;1.0;;
82805;SDS011;72558;51.000;-3.112;2024-01-06T11:24:33;4.5;;;1.1;;
82805;SDS011;72558;51.000;-3.112;2024-01-06T11:27:34;4.8;;;0.7;;
82805;SDS011;72558;51.000;-3.112;2024-01-06T11:30:33;6.1;;;1.2;;
82805;SDS011;72558;51.000;-3.112;2024-01-06T11:33:34;5.6;;;1.2;;
82805;SDS011;72558;51.000;-3.112;2024-01-06T11:36:33;5.1;;;1.2;;
82805;SDS011;72558;51.000;-3.112;2024-01-06T11:39:34;5.7;;;1.2;;
82805;SDS011;72558;51.000;-3.112;2024-01-06T11:42:34;6.1;;;1.1;;
82805;SDS011;72558;51.000;-3.112;2024-01-06T11:45:34;5.6;;;0.9;;
82805;SDS011;72558;51.000;-3.112;2024-01-06T11:48:34;4.1;;;0.9;;
82805;SDS011;72558;51.000;-3.112;2024-01-06T11:51:33;6.6;;;1.2;;
82805;SDS011;72558;51.000;-3.112;2024-01-06T11:54:34;6.4;;;1.3;;
82805;SDS011;72558;51.000;-3.112;2024-01-06T11:57:34;4.7;;;1.3;;
82805;SDS011;72558;51.000;-3.112;2024-01-06T12:00:33;5.5;;;0.9;;
82805;SDS011;72558;51.000;-3.112;2024-01-06T12:03:33;4.5;;;0.9;;
82805;SDS011;72558;51.000;-3.112;2024-01-06T12:06:34;6.0;;;0.9;;
82805;SDS011;72558;51.000;-3.112;2024-01-06T12:09:33;6.6;;;1.2;;
82805;SDS011;72558;51.000;-3.112;2024-01-06T12:12:34;5.7;;;0.9;;
82805;SDS011;72558;51.000;-3.112;2024-01-06T12:15:34;7.0;;;1.2;;
82805;SDS011;72558;51.000;-3.112;2024-01-06T12:18:34;5.1;;;1.4;;
82805;SDS011;72558;51.000;-3.112;2024-01-06T12:21:34;5.3;;;0.9;;
82805;SDS011;72558;51.000;-3.112;2024-01-06T12:24:33;5.4;;;1.0;;
82805;SDS011;72558;51.000;-3.112;2024-01-06T12:27:34;5.6;;;0.9;;
82805;SDS011;72558;51.000;-3.112;2024-01-06T12:30:33;3.7;;;0.9;;
82805;SDS011;72558;51.000;-3.112;2024-01-06T12:33:34;5.5;;;0.8;;
82805;SDS011;72558;51.000;-3.112;2024-01-06T12:36:33;5.7;;;0.9;;
82805;SDS011;72558;51.000;-3.112;2024-01-06T12:39:33;6.1;;;0.8;;
82805;SDS011;72558;51.000;-3.112;2024-01-06T12:42:34;6.4;;;0.8;;
82805;SDS011;72558;51.000;-3.112;2024-01-06T12:45:34;6.5;;;0.8;;
82805;SDS011;72558;51.000;-3.112;2024-01-06T12:48:34;5.3;;;0.7;;
82805;SDS011;72558;51.000;-3.112;2024-01-06T12:51:34;5.3;;;0.8;;
82805;SDS011;72558;51.000;-3.112;2024-01-06T12:54:34;4.6;;;1.2;;
82805;SDS011;72558;51.000;-3.112;2024-01-06T12:57:34;6.0;;;0.9;;
82805;SDS011;72558;51.000;-3.112;2024-01-06T13:00:34;6.3;;;1.0;;
82805;SDS011;72558;51.000;-3.112;2024-01-06T13:03:33;6.1;;;0.8;;
82805;SDS011;72558;51.000;-3.112;2024-01-06T13:06:34;4.1;;;0.7;;
82805;SDS011;72558;51.000;-3.112;2024-01-06T13:09:33;6.2;;;0.7;;
82805;SDS011;72558;51.000;-3.112;2024-01-06T13:12:34;3.5;;;0.7;;
82805;SDS011;72558;51.000;-3.112;2024-01-06T13:15:33;4.8;;;0.7;;
82805;SDS011;72558;51.000;-3.112;2024-01-06T13:18:34;5.3;;;0.8;;
82805;SDS011;72558;51.000;-3.112;2024-01-06T13:21:34;3.7;;;0.7;;
82805;SDS011;72558;51.000;-3.112;2024-01-06T13:24:34;4.5;;;0.7;;
82805;SDS011;72558;51.000;-3.112;2024-01-06T13:27:34;5.7;;;1.2;;
82805;SDS011;72558;51.000;-3.112;2024-01-06T13:30:34;5.9;;;1.0;;
82805;SDS011;72558;51.000;-3.112;2024-01-06T13:33:34;7.5;;;1.3;;
82805;SDS011;72558;51.000;-3.112;2024-01-06T13:36:34;6.3;;;0.8;;
82805;SDS011;72558;51.000;-3.112;2024-01-06T13:39:34;5.7;;;0.9;;
82805;SDS011;72558;51.000;-3.112;2024-01-06T13:42:33;6.3;;;1.3;;
82805;SDS011;72558;51.000;-3.112;2024-01-06T13:45:33;5.8;;;1.1;;
82805;SDS011;72558;51.000;-3.112;2024-01-06T13:48:34;4.5;;;0.8;;
82805;SDS011;72558;51.000;-3.112;2024-01-06T13:51:33;6.2;;;1.0;;
82805;SDS011;72558;51.000;-3.112;2024-01-06T13:54:34;6.0;;;0.9;;
82805;SDS011;72558;51.000;-3.112;2024-01-06T13:57:34;5.4;;;0.9;;
82805;SDS011;72558;51.000;-3.112;2024-01-06T14:00:34;4.7;;;1.0;;
82805;SDS011;72558;51.000;-3.112;2024-01-06T14:03:34;5.5;;;1.1;;
82805;SDS011;72558;51.000;-3.112;2024-01-06T14:06:34;5.9;;;0.7;;
82805;SDS011;72558;51.000;-3.112;2024-01-06T14:09:34;5.3;;;0.9;;
82805;SDS011;72558;51.000;-3.112;2024-01-06T14:12:34;8.1;;;0.9;;
82805;SDS011;72558;51.000;-3.112;2024-01-06T14:15:34;6.1;;;1.0;;
82805;SDS011;72558;51.000;-3.112;2024-01-06T14:18:34;6.3;;;0.8;;
82805;SDS011;72558;51.000;-3.112;2024-01-06T14:21:34;7.0;;;1.1;;
82805;SDS011;72558;51.000;-3.112;2024-01-06T14:24:34;8.2;;;1.3;;
82805;SDS011;72558;51.000;-3.112;2024-01-06T14:27:34;8.8;;;1.3;;
82805;SDS011;72558;51.000;-3.112;2024-01-06T14:30:34;10.7;;;1.8;;
82805;SDS011;72558;51.000;-3.112;2024-01-06T14:33:33;6.2;;;1.6;;
82805;SDS011;72558;51.000;-3.112;2024-01-06T14:36:34;7.8;;;1.8;;
82805;SDS011;72558;51.000;-3.112;2024-01-06T14:39:34;8.2;;;1.7;;
82805;SDS011;72558;51.000;-3.112;2024-01-06T14:42:33;6.2;;;1.2;;
82805;SDS011;72558;51.000;-3.112;2024-01-06T14:45:34;8.1;;;1.8;;
82805;SDS011;72558;51.000;-3.112;2024-01-06T14:48:33;8.9;;;1.4;;
82805;SDS011;72558;51.000;-3.112;2024-01-06T14:51:34;10.6;;;1.7;;
82805;SDS011;72558;51.000;-3.112;2024-01-06T14:54:33;8.1;;;1.5;;
82805;SDS011;72558;51.000;-3.112;2024-01-06T14:57:34;6.7;;;1.3;;
82805;SDS011;72558;51.000;-3.112;2024-01-06T15:00:34;10.4;;;1.9;;
82805;SDS011;72558;51.000;-3.112;2024-01-06T15:03:34;10.1;;;1.8;;
82805;SDS011;72558;51.000;-3.112;2024-01-06T15:06:34;7.7;;;1.5;;
82805;SDS011;72558;51.000;-3.112;2024-01-06T15:09:34;9.3;;;1.9;;
82805;SDS011;72558;51.000;-3.112;2024-01-06T15:12:34;10.4;;;1.5;;
82805;SDS011;72558;51.000;-3.112;2024-01-06T15:15:34;10.1;;;1.6;;
82805;SDS011;72558;51.000;-3.112;2024-01-06T15:18:34;10.1;;;1.7;;
82805;SDS011;72558;51.000;-3.112;2024-01-06T15:21:34;9.0;;;1.9;;
82805;SDS011;72558;51.000;-3.112;2024-01-06T15:24:34;9.1;;;1.8;;
82805;SDS011;72558;51.000;-3.112;2024-01-06T15:27:33;10.7;;;2.2;;
82805;SDS011;72558;51.000;-3.112;2024-01-06T15:30:34;7.7;;;1.9;;
82805;SDS011;72558;51.000;-3.112;2024-01-06T15:33:33;10.2;;;2.2;;
82805;SDS011;72558;51.000;-3.112;2024-01-06T15:36:34;9.6;;;2.0;;
82805;SDS011;72558;51.000;-3.112;2024-01-06T15:39:35;8.8;;;2.3;;
82805;SDS011;72558;51.000;-3.112;2024-01-06T15:42:33;9.2;;;2.1;;
82805;SDS011;72558;51.000;-3.112;2024-01-06T15:45:34;10.4;;;2.1;;
82805;SDS011;72558;51.000;-3.112;2024-01-06T15:48:33;10.5;;;2.2;;
82805;SDS011;72558;51.000;-3.112;2024-01-06T15:51:34;12.7;;;2.0;;
82805;SDS011;72558;51.000;-3.112;2024-01-06T15:54:33;10.0;;;1.9;;
82805;SDS011;72558;51.000;-3.112;2024-01-06T15:57:34;10.8;;;2.0;;
82805;SDS011;72558;51.000;-3.112;2024-01-06T16:00:34;11.6;;;1.9;;
82805;SDS011;72558;51.000;-3.112;2024-01-06T16:03:33;9.2;;;1.7;;
82805;SDS011;72558;51.000;-3.112;2024-01-06T16:06:34;11.6;;;2.4;;
82805;SDS011;72558;51.000;-3.112;2024-01-06T16:09:33;8.4;;;1.7;;
82805;SDS011;72558;51.000;-3.112;2024-01-06T16:12:33;8.9;;;1.4;;
82805;SDS011;72558;51.000;-3.112;2024-01-06T16:15:34;10.5;;;2.2;;
82805;SDS011;72558;51.000;-3.112;2024-01-06T16:18:34;9.7;;;2.3;;
82805;SDS011;72558;51.000;-3.112;2024-01-06T16:21:34;12.5;;;3.3;;
82805;SDS011;72558;51.000;-3.112;2024-01-06T16:24:33;12.0;;;2.7;;
82805;SDS011;72558;51.000;-3.112;2024-01-06T16:27:34;11.8;;;2.9;;
82805;SDS011;72558;51.000;-3.112;2024-01-06T16:30:34;11.9;;;2.6;;
82805;SDS011;72558;51.000;-3.112;2024-01-06T16:33:33;12.0;;;2.4;;
82805;SDS011;72558;51.000;-3.112;2024-01-06T16:36:33;12.9;;;2.8;;
82805;SDS011;72558;51.000;-3.112;2024-01-06T16:39:34;11.8;;;3.3;;
82805;SDS011;72558;51.000;-3.112;2024-01-06T16:42:33;12.6;;;2.6;;
82805;SDS011;72558;51.000;-3.112;2024-01-06T16:45:34;13.3;;;2.5;;
82805;SDS011;72558;51.000;-3.112;2024-01-06T16:48:34;11.3;;;2.6;;
82805;SDS011;72558;51.000;-3.112;2024-01-06T16:51:34;8.4;;;2.4;;
82805;SDS011;72558;51.000;-3.112;2024-01-06T16:54:34;9.6;;;2.3;;
82805;SDS011;72558;51.000;-3.112;2024-01-06T16:57:34;14.5;;;1.8;;
82805;SDS011;72558;51.000;-3.112;2024-01-06T17:00:34;10.7;;;1.5;;
82805;SDS011;72558;51.000;-3.112;2024-01-06T17:03:34;10.0;;;2.1;;
82805;SDS011;72558;51.000;-3.112;2024-01-06T17:06:34;11.7;;;2.5;;
82805;SDS011;72558;51.000;-3.112;2024-01-06T17:09:34;13.3;;;3.5;;
82805;SDS011;72558;51.000;-3.112;2024-01-06T17:12:33;13.3;;;2.9;;
82805;SDS011;72558;51.000;-3.112;2024-01-06T17:15:34;9.1;;;2.4;;
82805;SDS011;72558;51.000;-3.112;2024-01-06T17:18:34;9.7;;;2.9;;
82805;SDS011;72558;51.000;-3.112;2024-01-06T17:21:34;10.9;;;3.3;;
82805;SDS011;72558;51.000;-3.112;2024-01-06T17:24:34;15.2;;;4.2;;
82805;SDS011;72558;51.000;-3.112;2024-01-06T17:27:34;12.0;;;3.8;;
82805;SDS011;72558;51.000;-3.112;2024-01-06T17:30:33;13.0;;;4.4;;
82805;SDS011;72558;51.000;-3.112;2024-01-06T17:33:34;15.7;;;5.7;;
82805;SDS011;72558;51.000;-3.112;2024-01-06T17:36:33;12.5;;;4.8;;
82805;SDS011;72558;51.000;-3.112;2024-01-06T17:39:34;14.9;;;5.6;;
82805;SDS011;72558;51.000;-3.112;2024-01-06T17:42:34;13.6;;;5.3;;
82805;SDS011;72558;51.000;-3.112;2024-01-06T17:45:33;16.5;;;6.0;;
82805;SDS011;72558;51.000;-3.112;2024-01-06T17:48:34;14.9;;;5.8;;
82805;SDS011;72558;51.000;-3.112;2024-01-06T17:51:34;16.7;;;6.8;;
82805;SDS011;72558;51.000;-3.112;2024-01-06T17:54:33;16.7;;;6.6;;
82805;SDS011;72558;51.000;-3.112;2024-01-06T17:57:34;13.6;;;6.0;;
82805;SDS011;72558;51.000;-3.112;2024-01-06T18:00:34;16.6;;;7.4;;
82805;SDS011;72558;51.000;-3.112;2024-01-06T18:03:34;17.4;;;7.2;;
82805;SDS011;72558;51.000;-3.112;2024-01-06T18:06:34;21.5;;;10.0;;
82805;SDS011;72558;51.000;-3.112;2024-01-06T18:09:33;18.3;;;10.1;;